createdAt,value
2017-05-27T00:00:09.199Z,7.14
2017-05-27T00:02:36.325Z,7.68
2017-05-27T00:05:03.605Z,6.94
2017-05-27T00:07:30.795Z,6.12
2017-05-27T00:09:57.917Z,6.60
2017-05-27T00:12:25.108Z,7.18
2017-05-27T00:14:52.251Z,7.72
2017-05-27T00:17:19.381Z,7.20
2017-05-27T00:19:46.568Z,6.90
2017-05-27T00:22:13.729Z,6.06
2017-05-27T00:24:40.852Z,6.82
2017-05-27T00:27:08.020Z,7.16
2017-05-27T00:29:35.148Z,6.60
2017-05-27T00:32:02.288Z,6.58
2017-05-27T00:34:29.451Z,7.38
2017-05-27T00:36:56.577Z,7.62
2017-05-27T00:39:23.724Z,7.36
2017-05-27T00:41:50.893Z,7.18
2017-05-27T00:44:18.018Z,6.76
2017-05-27T00:46:45.148Z,6.92
2017-05-27T00:49:12.312Z,7.84
2017-05-27T00:51:39.449Z,7.32
2017-05-27T00:54:06.613Z,6.68
2017-05-27T00:56:33.789Z,7.08
2017-05-27T00:59:00.929Z,5.90
2017-05-27T01:01:28.138Z,6.36
2017-05-27T01:03:55.274Z,6.88
2017-05-27T01:06:22.400Z,6.38
2017-05-27T01:08:49.667Z,7.00
2017-05-27T01:11:16.801Z,7.16
2017-05-27T01:13:43.943Z,7.44
2017-05-27T01:16:11.204Z,6.38
2017-05-27T01:18:38.328Z,7.18
2017-05-27T01:21:05.485Z,6.56
2017-05-27T01:23:32.704Z,7.30
2017-05-27T01:25:59.856Z,5.96
2017-05-27T01:28:26.981Z,6.58
2017-05-27T01:30:54.166Z,6.40
2017-05-27T01:33:21.368Z,6.68
2017-05-27T01:35:48.560Z,7.20
2017-05-27T01:38:15.729Z,7.70
2017-05-27T01:40:42.901Z,7.32
2017-05-27T01:43:10.040Z,6.92
2017-05-27T01:45:37.248Z,7.44
2017-05-27T01:48:04.389Z,6.80
2017-05-27T01:50:31.509Z,7.36
2017-05-27T01:52:58.965Z,6.92
2017-05-27T01:55:26.117Z,7.44
2017-05-27T01:57:53.269Z,6.58
2017-05-27T02:00:20.457Z,7.50
2017-05-27T02:02:47.584Z,7.70
2017-05-27T02:05:14.728Z,7.70
2017-05-27T02:07:41.895Z,8.66
2017-05-27T02:10:09.041Z,7.50
2017-05-27T02:12:36.180Z,7.22
2017-05-27T02:15:03.345Z,7.84
2017-05-27T02:17:30.513Z,7.72
2017-05-27T02:19:57.652Z,7.20
2017-05-27T02:22:24.853Z,7.60
2017-05-27T02:24:52.012Z,8.10
2017-05-27T02:27:19.136Z,6.72
2017-05-27T02:29:46.401Z,6.90
2017-05-27T02:32:13.564Z,8.00
2017-05-27T02:34:40.709Z,7.96
2017-05-27T02:37:07.865Z,8.18
2017-05-27T02:39:35.116Z,7.80
2017-05-27T02:42:02.257Z,9.14
2017-05-27T02:44:28.684Z,7.86
2017-05-27T02:46:55.860Z,7.20
2017-05-27T02:49:23.015Z,7.62
2017-05-27T02:51:50.147Z,8.24
2017-05-27T02:54:17.600Z,7.38
2017-05-27T02:56:44.736Z,7.98
2017-05-27T02:59:11.881Z,8.40
2017-05-27T03:01:39.053Z,6.94
2017-05-27T03:04:06.180Z,7.06
2017-05-27T03:06:33.304Z,6.28
2017-05-27T03:09:00.463Z,7.12
2017-05-27T03:11:27.607Z,7.46
2017-05-27T03:13:54.732Z,7.80
2017-05-27T03:16:21.902Z,8.04
2017-05-27T03:18:49.058Z,6.84
2017-05-27T03:21:16.228Z,7.84
2017-05-27T03:23:43.507Z,6.52
2017-05-27T03:26:10.680Z,8.74
2017-05-27T03:28:37.820Z,7.28
2017-05-27T03:31:05.012Z,10.26
2017-05-27T03:33:32.154Z,7.80
2017-05-27T03:35:59.277Z,8.02
2017-05-27T03:38:26.450Z,7.44
2017-05-27T03:40:53.581Z,7.92
2017-05-27T03:43:20.712Z,7.46
2017-05-27T03:45:47.891Z,7.82
2017-05-27T03:48:15.024Z,7.34
2017-05-27T03:50:42.157Z,7.60
2017-05-27T03:53:09.328Z,8.20
2017-05-27T03:55:36.495Z,7.60
2017-05-27T03:58:03.613Z,7.44
2017-05-27T04:00:30.781Z,8.08
2017-05-27T04:02:57.920Z,7.26
2017-05-27T04:05:25.042Z,8.08
2017-05-27T04:07:52.209Z,5.96
2017-05-27T04:10:19.349Z,7.32
2017-05-27T04:12:46.508Z,6.92
2017-05-27T04:15:13.641Z,5.44
2017-05-27T04:17:40.767Z,7.26
2017-05-27T04:20:07.956Z,6.30
2017-05-27T04:22:35.104Z,6.88
2017-05-27T04:25:02.243Z,5.98
2017-05-27T04:27:29.415Z,6.20
2017-05-27T04:29:56.556Z,6.72
2017-05-27T04:32:23.699Z,8.00
2017-05-27T04:34:50.955Z,6.34
2017-05-27T04:37:18.084Z,8.20
2017-05-27T04:39:45.221Z,10.24
2017-05-27T04:42:12.433Z,6.82
2017-05-27T04:44:39.572Z,7.46
2017-05-27T04:47:06.701Z,6.60
2017-05-27T04:49:33.885Z,8.86
2017-05-27T04:52:01.021Z,7.70
2017-05-27T04:54:28.153Z,7.90
2017-05-27T04:56:55.338Z,8.62
2017-05-27T04:59:22.465Z,8.38
2017-05-27T05:01:49.603Z,7.96
2017-05-27T05:04:16.777Z,7.78
2017-05-27T05:06:43.905Z,7.42
2017-05-27T05:09:11.162Z,8.42
2017-05-27T05:11:38.321Z,7.48
2017-05-27T05:14:05.476Z,7.28
2017-05-27T05:16:32.644Z,6.44
2017-05-27T05:18:59.849Z,10.02
2017-05-27T05:21:26.989Z,6.22
2017-05-27T05:23:54.174Z,7.12
2017-05-27T05:26:21.596Z,6.62
2017-05-27T05:28:48.723Z,5.88
2017-05-27T05:31:15.881Z,8.34
2017-05-27T05:33:43.368Z,6.00
2017-05-27T05:36:10.578Z,7.06
2017-05-27T05:38:37.740Z,6.04
2017-05-27T05:41:04.913Z,8.18
2017-05-27T05:43:32.059Z,6.28
2017-05-27T05:45:59.237Z,6.62
2017-05-27T05:48:26.560Z,6.10
2017-05-27T05:50:53.748Z,6.18
2017-05-27T05:53:20.945Z,6.34
2017-05-27T05:55:48.081Z,6.72
2017-05-27T05:58:15.308Z,7.50
2017-05-27T06:00:42.488Z,8.14
2017-05-27T06:03:09.646Z,6.92
2017-05-27T06:05:36.809Z,5.60
2017-05-27T06:08:03.934Z,7.02
2017-05-27T06:10:31.109Z,6.40
2017-05-27T06:13:05.286Z,6.60
2017-05-27T06:15:32.480Z,6.74
2017-05-27T06:17:59.609Z,6.88
2017-05-27T06:20:26.753Z,7.06
2017-05-27T06:22:53.921Z,6.52
2017-05-27T06:25:21.086Z,6.42
2017-05-27T06:27:48.363Z,6.36
2017-05-27T06:30:15.648Z,8.60
2017-05-27T06:32:42.834Z,6.58
2017-05-27T06:35:10.000Z,7.16
2017-05-27T06:37:36.401Z,6.22
2017-05-27T06:40:03.653Z,8.40
2017-05-27T06:42:30.830Z,7.18
2017-05-27T06:44:57.971Z,7.54
2017-05-27T06:47:25.147Z,6.22
2017-05-27T06:49:52.293Z,7.66
2017-05-27T06:52:19.417Z,5.94
2017-05-27T06:54:46.582Z,5.30
2017-05-27T06:57:13.712Z,5.76
2017-05-27T06:59:41.136Z,5.12
2017-05-27T07:02:08.307Z,4.32
2017-05-27T07:04:35.436Z,5.38
2017-05-27T07:07:02.708Z,4.24
2017-05-27T07:09:29.845Z,5.60
2017-05-27T07:11:56.980Z,4.82
2017-05-27T07:14:24.244Z,5.34
2017-05-27T07:16:51.372Z,5.84
2017-05-27T07:19:18.496Z,5.16
2017-05-27T07:21:45.660Z,5.00
2017-05-27T07:24:12.788Z,4.88
2017-05-27T07:26:39.911Z,4.80
2017-05-27T07:29:07.082Z,5.04
2017-05-27T07:31:34.228Z,5.34
2017-05-27T07:34:01.364Z,4.86
2017-05-27T07:36:28.624Z,5.68
2017-05-27T07:38:55.815Z,4.70
2017-05-27T07:41:22.988Z,5.70
2017-05-27T07:43:50.388Z,5.74
2017-05-27T07:46:17.532Z,5.14
2017-05-27T07:48:44.660Z,5.80
2017-05-27T07:51:11.921Z,4.80
2017-05-27T07:53:39.040Z,5.52
2017-05-27T07:56:06.173Z,4.62
2017-05-27T07:58:33.329Z,5.34
2017-05-27T08:01:00.465Z,6.28
2017-05-27T08:03:27.608Z,5.58
2017-05-27T08:05:54.784Z,5.18
2017-05-27T08:08:22.005Z,4.68
2017-05-27T08:10:48.457Z,5.38
2017-05-27T08:13:15.600Z,5.34
2017-05-27T08:15:42.734Z,6.36
2017-05-27T08:18:09.930Z,5.30
2017-05-27T08:20:37.084Z,6.02
2017-05-27T08:23:04.216Z,5.50
2017-05-27T08:25:31.408Z,4.84
2017-05-27T08:27:58.545Z,4.72
2017-05-27T08:30:25.693Z,5.26
2017-05-27T08:32:58.953Z,5.10
2017-05-27T08:35:26.107Z,5.34
2017-05-27T08:37:53.232Z,4.66
2017-05-27T08:40:20.361Z,4.60
2017-05-27T08:42:47.677Z,4.96
2017-05-27T08:45:14.797Z,4.18
2017-05-27T08:47:41.937Z,6.24
2017-05-27T08:50:09.112Z,4.22
2017-05-27T08:52:36.240Z,5.04
2017-05-27T08:55:03.380Z,4.32
2017-05-27T08:57:30.552Z,4.78
2017-05-27T08:59:57.678Z,5.32
2017-05-27T09:02:24.804Z,4.50
2017-05-27T09:04:51.983Z,4.74
2017-05-27T09:07:19.127Z,4.88
2017-05-27T09:09:46.259Z,5.36
2017-05-27T09:12:13.428Z,4.96
2017-05-27T09:14:40.556Z,5.18
2017-05-27T09:17:07.676Z,7.26
2017-05-27T09:19:34.847Z,5.28
2017-05-27T09:22:01.972Z,5.40
2017-05-27T09:24:29.150Z,4.40
2017-05-27T09:26:55.620Z,7.74
2017-05-27T09:29:22.734Z,4.48
2017-05-27T09:31:49.916Z,4.90
2017-05-27T09:34:17.033Z,6.94
2017-05-27T09:36:44.168Z,4.84
2017-05-27T09:39:11.340Z,5.30
2017-05-27T09:41:38.484Z,5.00
2017-05-27T09:44:05.630Z,5.10
2017-05-27T09:46:32.784Z,5.22
2017-05-27T09:48:59.906Z,6.22
2017-05-27T09:51:27.036Z,5.24
2017-05-27T09:53:54.195Z,4.76
2017-05-27T09:56:21.320Z,4.04
2017-05-27T09:58:48.443Z,4.28
2017-05-27T10:01:15.623Z,5.30
2017-05-27T10:03:42.754Z,5.72
2017-05-27T10:06:09.917Z,5.20
2017-05-27T10:08:37.084Z,4.58
2017-05-27T10:11:04.213Z,4.94
2017-05-27T10:13:31.344Z,4.38
2017-05-27T10:15:58.509Z,5.56
2017-05-27T10:18:25.644Z,4.06
2017-05-27T10:20:52.781Z,4.92
2017-05-27T10:23:19.939Z,4.52
2017-05-27T10:25:47.073Z,5.34
2017-05-27T10:28:14.200Z,4.62
2017-05-27T10:30:41.393Z,19.10
2017-05-27T10:33:08.515Z,4.52
2017-05-27T10:35:35.652Z,4.80
2017-05-27T10:38:02.824Z,5.50
2017-05-27T10:40:29.969Z,5.28
2017-05-27T10:42:57.116Z,4.82
2017-05-27T10:45:24.377Z,5.12
2017-05-27T10:47:51.504Z,4.74
2017-05-27T10:50:18.637Z,6.82
2017-05-27T10:52:45.823Z,5.52
2017-05-27T10:55:12.985Z,4.22
2017-05-27T10:57:40.136Z,4.74
2017-05-27T11:00:07.313Z,4.06
2017-05-27T11:02:34.450Z,4.62
2017-05-27T11:05:00.844Z,4.20
2017-05-27T11:07:28.293Z,4.26
2017-05-27T11:09:55.428Z,4.78
2017-05-27T11:12:22.552Z,5.08
2017-05-27T11:14:49.728Z,5.00
2017-05-27T11:17:16.857Z,5.02
2017-05-27T11:19:43.986Z,4.08
2017-05-27T11:22:11.129Z,4.64
2017-05-27T11:24:38.253Z,3.82
2017-05-27T11:27:05.396Z,3.80
2017-05-27T11:29:32.652Z,4.00
2017-05-27T11:31:59.039Z,4.10
2017-05-27T11:34:26.165Z,3.44
2017-05-27T11:36:53.324Z,3.98
2017-05-27T11:39:20.452Z,3.46
2017-05-27T11:41:47.592Z,3.88
2017-05-27T11:44:14.832Z,3.94
2017-05-27T11:46:41.964Z,3.32
2017-05-27T11:49:09.103Z,4.10
2017-05-27T11:51:36.345Z,9.24
2017-05-27T11:54:03.484Z,3.58
2017-05-27T11:56:30.626Z,3.76
2017-05-27T11:58:57.809Z,3.46
2017-05-27T12:01:24.949Z,3.30
2017-05-27T12:03:52.121Z,3.10
2017-05-27T12:06:19.393Z,4.66
2017-05-27T12:08:46.561Z,5.62
2017-05-27T12:11:13.697Z,3.46
2017-05-27T12:13:40.869Z,4.14
2017-05-27T12:16:08.032Z,3.20
2017-05-27T12:18:35.169Z,4.78
2017-05-27T12:21:02.381Z,3.42
2017-05-27T12:23:29.495Z,3.26
2017-05-27T12:25:56.657Z,3.68
2017-05-27T12:28:23.795Z,3.00
2017-05-27T12:30:50.928Z,3.52
2017-05-27T12:33:18.068Z,3.52
2017-05-27T12:35:45.192Z,2.68
2017-05-27T12:38:12.317Z,3.76
2017-05-27T12:40:39.513Z,3.80
2017-05-27T12:43:06.640Z,4.60
2017-05-27T12:45:33.752Z,3.74
2017-05-27T12:48:00.928Z,4.50
2017-05-27T12:50:28.068Z,3.90
2017-05-27T12:52:55.209Z,3.90
2017-05-27T12:55:22.389Z,3.32
2017-05-27T12:57:49.565Z,3.28
2017-05-27T13:00:15.948Z,3.02
2017-05-27T13:02:43.097Z,2.90
2017-05-27T13:05:10.265Z,3.28
2017-05-27T13:07:37.380Z,3.20
2017-05-27T13:10:04.549Z,3.28
2017-05-27T13:12:31.709Z,2.74
2017-05-27T13:14:58.877Z,3.60
2017-05-27T13:17:25.996Z,3.48
2017-05-27T13:19:53.300Z,3.84
2017-05-27T13:22:20.415Z,4.66
2017-05-27T13:24:47.532Z,5.22
2017-05-27T13:27:13.981Z,4.72
2017-05-27T13:29:41.108Z,4.46
2017-05-27T13:32:08.237Z,4.78
2017-05-27T13:34:35.392Z,5.18
2017-05-27T13:37:02.529Z,3.70
2017-05-27T13:39:29.656Z,3.52
2017-05-27T13:41:56.827Z,3.62
2017-05-27T13:44:23.957Z,4.36
2017-05-27T13:46:51.100Z,4.38
2017-05-27T13:49:18.256Z,3.48
2017-05-27T13:51:45.436Z,3.28
2017-05-27T13:54:12.563Z,5.32
2017-05-27T13:56:39.741Z,3.62
2017-05-27T13:59:06.868Z,3.24
2017-05-27T14:01:34.016Z,3.10
2017-05-27T14:04:01.200Z,2.76
2017-05-27T14:06:28.330Z,3.48
2017-05-27T14:08:55.456Z,3.72
2017-05-27T14:11:22.757Z,3.72
2017-05-27T14:13:49.892Z,4.08
2017-05-27T14:16:17.044Z,3.98
2017-05-27T14:18:44.206Z,3.44
2017-05-27T14:21:11.333Z,3.68
2017-05-27T14:23:38.517Z,3.38
2017-05-27T14:26:05.651Z,3.36
2017-05-27T14:28:32.788Z,4.10
2017-05-27T14:30:59.971Z,3.48
2017-05-27T14:33:27.108Z,3.50
2017-05-27T14:35:53.512Z,4.10
2017-05-27T14:38:20.648Z,4.64
2017-05-27T14:40:47.787Z,3.52
2017-05-27T14:43:14.964Z,4.62
2017-05-27T14:45:42.097Z,4.06
2017-05-27T14:48:09.244Z,4.06
2017-05-27T14:50:36.381Z,4.20
2017-05-27T14:53:03.588Z,4.16
2017-05-27T14:55:30.730Z,3.92
2017-05-27T14:57:57.864Z,3.78
2017-05-27T15:00:25.020Z,4.32
2017-05-27T15:02:52.157Z,3.10
2017-05-27T15:05:18.548Z,4.12
2017-05-27T15:07:45.710Z,3.12
2017-05-27T15:10:12.880Z,3.44
2017-05-27T15:12:40.041Z,3.44
2017-05-27T15:15:07.160Z,3.32
2017-05-27T15:17:34.313Z,4.40
2017-05-27T15:20:01.464Z,3.46
2017-05-27T15:22:28.593Z,3.90
2017-05-27T15:24:55.869Z,3.64
2017-05-27T15:27:23.007Z,3.42
2017-05-27T15:29:50.141Z,3.16
2017-05-27T15:32:17.299Z,3.90
2017-05-27T15:34:44.432Z,3.74
2017-05-27T15:37:11.559Z,3.34
2017-05-27T15:39:38.746Z,3.36
2017-05-27T15:42:05.869Z,3.30
2017-05-27T15:44:33.028Z,4.14
2017-05-27T15:47:00.449Z,4.82
2017-05-27T15:49:27.589Z,3.60
2017-05-27T15:51:54.748Z,3.52
2017-05-27T15:54:21.932Z,3.72
2017-05-27T15:56:49.056Z,3.04
2017-05-27T15:59:16.183Z,5.78
2017-05-27T16:01:43.457Z,3.64
2017-05-27T16:04:10.588Z,3.30
2017-05-27T16:06:37.749Z,3.12
2017-05-27T16:09:04.881Z,3.58
2017-05-27T16:11:32.064Z,3.58
2017-05-27T16:13:59.245Z,3.82
2017-05-27T16:16:26.389Z,3.18
2017-05-27T16:18:52.812Z,3.76
2017-05-27T16:21:19.949Z,3.70
2017-05-27T16:23:47.117Z,3.46
2017-05-27T16:26:14.237Z,3.22
2017-05-27T16:28:41.372Z,3.22
2017-05-27T16:31:08.637Z,2.60
2017-05-27T16:33:35.758Z,3.34
2017-05-27T16:36:02.908Z,4.14
2017-05-27T16:38:30.100Z,3.40
2017-05-27T16:40:57.242Z,3.62
2017-05-27T16:43:24.391Z,3.18
2017-05-27T16:45:51.568Z,3.56
2017-05-27T16:48:18.701Z,2.74
2017-05-27T16:50:45.841Z,3.56
2017-05-27T16:53:13.013Z,3.26
2017-05-27T16:55:40.152Z,3.10
2017-05-27T16:58:07.304Z,2.82
2017-05-27T17:00:34.464Z,3.26
2017-05-27T17:03:01.604Z,3.24
2017-05-27T17:05:28.737Z,4.98
2017-05-27T17:07:55.897Z,3.08
2017-05-27T17:10:23.048Z,3.02
2017-05-27T17:12:50.205Z,4.36
2017-05-27T17:15:17.408Z,4.92
2017-05-27T17:17:44.584Z,2.60
2017-05-27T17:20:11.733Z,3.12
2017-05-27T17:22:38.904Z,5.50
2017-05-27T17:25:06.069Z,4.26
2017-05-27T17:27:33.201Z,4.78
2017-05-27T17:30:00.380Z,5.20
2017-05-27T17:32:27.520Z,6.68
2017-05-27T17:34:54.642Z,3.66
2017-05-27T17:37:21.917Z,2.70
2017-05-27T17:39:49.045Z,3.92
2017-05-27T17:42:16.210Z,3.04
2017-05-27T17:44:42.605Z,3.14
2017-05-27T17:47:09.739Z,3.40
2017-05-27T17:49:36.888Z,3.34
2017-05-27T17:52:04.033Z,3.22
2017-05-27T17:54:31.190Z,3.72
2017-05-27T17:56:58.324Z,6.44
2017-05-27T17:59:25.482Z,3.56
2017-05-27T18:01:52.612Z,2.70
2017-05-27T18:27:05.876Z,2.78
2017-05-27T18:35:26.004Z,3.92
2017-05-27T18:37:53.133Z,3.42
2017-05-27T18:40:20.263Z,4.64
2017-05-27T18:42:47.417Z,3.28
2017-05-27T18:45:14.535Z,6.94
2017-05-27T18:47:41.710Z,4.16
2017-05-27T18:50:08.861Z,4.28
2017-05-27T18:52:35.995Z,3.72
2017-05-27T18:55:03.172Z,4.98
2017-05-27T18:57:30.332Z,4.52
2017-05-27T18:59:57.492Z,4.46
2017-05-27T19:02:24.665Z,4.46
2017-05-27T19:04:51.792Z,5.14
2017-05-27T19:07:18.957Z,6.60
2017-05-27T19:09:46.096Z,5.60
2017-05-27T19:12:13.265Z,5.46
2017-05-27T19:14:40.437Z,6.14
2017-05-27T19:17:07.611Z,6.22
2017-05-27T19:19:34.732Z,6.20
2017-05-27T19:22:01.924Z,5.96
2017-05-27T19:24:29.058Z,6.00
2017-05-27T19:26:56.184Z,6.50
2017-05-27T19:29:23.361Z,8.18
2017-05-27T19:31:50.500Z,6.10
2017-05-27T19:34:17.629Z,6.20
2017-05-27T19:36:44.805Z,7.00
2017-05-27T19:39:11.919Z,5.82
2017-05-27T19:41:39.061Z,7.18
2017-05-27T19:44:06.237Z,6.82
2017-05-27T19:46:33.377Z,6.46
2017-05-27T19:49:00.499Z,7.60
2017-05-27T19:51:27.664Z,8.48
2017-05-27T19:53:54.801Z,7.54
2017-05-27T19:56:21.921Z,7.58
2017-05-27T19:58:48.347Z,8.94
2017-05-27T20:01:15.490Z,8.20
2017-05-27T20:03:42.673Z,8.92
2017-05-27T20:06:09.805Z,10.20
2017-05-27T20:08:36.977Z,7.28
2017-05-27T20:11:04.105Z,7.96
2017-05-27T20:13:31.653Z,8.12
2017-05-27T20:15:58.828Z,8.26
2017-05-27T20:18:26.013Z,8.50
2017-05-27T20:20:53.137Z,7.48
2017-05-27T20:23:20.299Z,8.40
2017-05-27T20:25:47.421Z,7.18
2017-05-27T20:28:14.566Z,7.96
2017-05-27T20:30:42.881Z,7.66
2017-05-27T20:33:10.015Z,7.44
2017-05-27T20:35:37.164Z,7.24
2017-05-27T20:38:04.341Z,5.88
2017-05-27T20:40:31.493Z,6.70
2017-05-27T20:42:58.617Z,6.54
2017-05-27T20:45:25.784Z,7.10
2017-05-27T20:47:52.910Z,6.02
2017-05-27T20:50:20.061Z,6.26
2017-05-27T20:52:47.241Z,9.26
2017-05-27T20:55:14.385Z,5.40
2017-05-27T20:57:41.531Z,5.42
2017-05-27T21:00:08.738Z,5.36
2017-05-27T21:02:35.887Z,5.50
2017-05-27T21:05:03.025Z,5.02
2017-05-27T21:07:30.193Z,5.70
2017-05-27T21:09:57.338Z,5.20
2017-05-27T21:12:24.459Z,4.78
2017-05-27T21:14:51.700Z,6.78
2017-05-27T21:17:18.905Z,4.44
2017-05-27T21:19:46.076Z,4.76
2017-05-27T21:22:13.212Z,5.36
2017-05-27T21:24:40.384Z,5.46
2017-05-27T21:27:07.524Z,4.44
2017-05-27T21:29:34.660Z,4.66
2017-05-27T21:32:01.836Z,5.64
2017-05-27T21:34:29.000Z,4.66
2017-05-27T21:36:55.384Z,4.60
2017-05-27T21:39:22.517Z,4.32
2017-05-27T21:41:48.953Z,5.46
2017-05-27T21:44:16.081Z,4.40
2017-05-27T21:46:43.264Z,4.70
2017-05-27T21:49:10.405Z,4.76
2017-05-27T21:51:37.541Z,4.52
2017-05-27T21:54:04.971Z,5.96
2017-05-27T21:56:32.127Z,4.64
2017-05-27T21:58:59.269Z,4.52
2017-05-27T22:01:26.456Z,5.00
2017-05-27T22:03:53.572Z,6.50
2017-05-27T22:06:20.697Z,5.84
2017-05-27T22:08:47.886Z,5.04
2017-05-27T22:11:15.047Z,5.18
2017-05-27T22:13:42.222Z,4.82
2017-05-27T22:16:09.396Z,5.58
2017-05-27T22:18:36.576Z,5.52
2017-05-27T22:21:03.704Z,5.10
2017-05-27T22:23:31.156Z,4.26
2017-05-27T22:25:58.273Z,5.46
2017-05-27T22:28:24.660Z,4.20
2017-05-27T22:30:51.941Z,4.80
2017-05-27T22:33:19.072Z,4.74
2017-05-27T22:35:46.213Z,5.54
2017-05-27T22:38:13.390Z,5.14
2017-05-27T22:40:40.532Z,6.28
2017-05-27T22:43:07.688Z,4.58
2017-05-27T22:45:34.864Z,4.70
2017-05-27T22:48:01.994Z,4.60
2017-05-27T22:50:29.133Z,4.82
2017-05-27T22:52:56.317Z,4.16
2017-05-27T22:55:23.453Z,4.30
2017-05-27T22:57:50.620Z,4.24
2017-05-27T23:00:17.768Z,5.18
2017-05-27T23:02:44.888Z,4.48
2017-05-27T23:05:12.140Z,4.52
2017-05-27T23:07:39.263Z,4.72
2017-05-27T23:10:06.409Z,5.58
2017-05-27T23:12:33.560Z,4.98
2017-05-27T23:15:00.711Z,3.90
2017-05-27T23:17:27.837Z,4.80
2017-05-27T23:19:55.041Z,3.84
2017-05-27T23:22:22.194Z,3.98
2017-05-27T23:24:49.321Z,8.52
2017-05-27T23:27:16.509Z,3.96
2017-05-27T23:29:43.645Z,4.44
2017-05-27T23:32:10.776Z,4.72
2017-05-27T23:34:37.962Z,4.04
2017-05-27T23:37:05.089Z,4.70
2017-05-27T23:39:32.217Z,4.06
2017-05-27T23:41:59.405Z,5.02
2017-05-27T23:44:26.538Z,4.30
2017-05-27T23:46:53.684Z,4.50
2017-05-27T23:49:21.110Z,4.08
2017-05-27T23:51:48.252Z,4.12
2017-05-27T23:54:15.408Z,5.52
2017-05-27T23:56:42.588Z,5.10
2017-05-27T23:59:09.724Z,3.88
